Terminal Aerodrome Forecast
Issued by NWS Charleston, WV

Home | Current Version | Previous Version | Text Only | Print | Product List | Glossary On
Versions: 1 2 3 4 5 6 7 8 9 10 11 12 13 14 15 16 17 18 19 20 21 22 23 24
962
FTUS41 KRLX 041810 RRA
TAFEKN
TAF
KEKN 041810Z 0418/0518 28004KT P6SM VCSH BKN035
     FM050400 24003KT 6SM SHRA BKN035
     FM050500 23002KT 4SM SHRA BR OVC025
     FM050700 26003KT 4SM SHRA BR OVC015
     FM050800 00000KT 3SM SHRA BR OVC010
     FM051100 00000KT 1SM SHRA BR OVC005
     FM051400 31004KT 2SM SHRA HZ OVC007=

USA.gov is the U.S. government's official web portal to all federal, state and local government web resources and services.